sensor_id;sensor_type;location;lat;lon;timestamp;temperature;humidity
37478;DHT22;23334;54.316;10.182;2022-09-09T00:00:14;14.20;99.90
37478;DHT22;23334;54.316;10.182;2022-09-09T00:02:45;14.60;99.90
37478;DHT22;23334;54.316;10.182;2022-09-09T00:07:47;14.40;99.90
37478;DHT22;23334;54.316;10.182;2022-09-09T00:10:29;14.60;99.90
37478;DHT22;23334;54.316;10.182;2022-09-09T00:13:09;14.60;99.90
37478;DHT22;23334;54.316;10.182;2022-09-09T00:15:54;14.50;99.90
37478;DHT22;23334;54.316;10.182;2022-09-09T00:18:47;14.60;99.90
37478;DHT22;23334;54.316;10.182;2022-09-09T00:21:18;14.50;99.90
37478;DHT22;23334;54.316;10.182;2022-09-09T00:23:48;14.50;99.90
37478;DHT22;23334;54.316;10.182;2022-09-09T00:26:25;14.50;99.90
37478;DHT22;23334;54.316;10.182;2022-09-09T00:29:00;14.70;99.90
37478;DHT22;23334;54.316;10.182;2022-09-09T00:31:30;14.70;99.90
37478;DHT22;23334;54.316;10.182;2022-09-09T00:34:23;14.60;99.90
37478;DHT22;23334;54.316;10.182;2022-09-09T00:36:52;14.60;99.90
37478;DHT22;23334;54.316;10.182;2022-09-09T00:39:32;14.50;99.90
37478;DHT22;23334;54.316;10.182;2022-09-09T00:42:12;14.50;99.90
37478;DHT22;23334;54.316;10.182;2022-09-09T00:45:05;14.70;99.90
37478;DHT22;23334;54.316;10.182;2022-09-09T00:47:44;14.70;99.90
37478;DHT22;23334;54.316;10.182;2022-09-09T00:50:57;14.70;99.90
37478;DHT22;23334;54.316;10.182;2022-09-09T00:53:56;14.40;99.90
37478;DHT22;23334;54.316;10.182;2022-09-09T00:56:53;14.50;99.90
37478;DHT22;23334;54.316;10.182;2022-09-09T00:59:51;14.70;99.90
37478;DHT22;23334;54.316;10.182;2022-09-09T01:02:27;14.60;99.90
37478;DHT22;23334;54.316;10.182;2022-09-09T01:04:54;16.80;99.90
37478;DHT22;23334;54.316;10.182;2022-09-09T01:07:20;14.50;99.90
37478;DHT22;23334;54.316;10.182;2022-09-09T01:10:00;14.40;99.90
37478;DHT22;23334;54.316;10.182;2022-09-09T01:12:43;14.60;99.90
37478;DHT22;23334;54.316;10.182;2022-09-09T01:15:17;14.30;99.90
37478;DHT22;23334;54.316;10.182;2022-09-09T01:20:12;14.50;99.90
37478;DHT22;23334;54.316;10.182;2022-09-09T01:28:11;14.70;99.90
37478;DHT22;23334;54.316;10.182;2022-09-09T01:30:39;14.50;99.90
37478;DHT22;23334;54.316;10.182;2022-09-09T01:33:15;14.50;99.90
37478;DHT22;23334;54.316;10.182;2022-09-09T01:36:00;14.60;99.90
37478;DHT22;23334;54.316;10.182;2022-09-09T01:38:28;14.50;99.90
37478;DHT22;23334;54.316;10.182;2022-09-09T01:40:55;14.70;99.90
37478;DHT22;23334;54.316;10.182;2022-09-09T01:43:21;14.50;99.90
37478;DHT22;23334;54.316;10.182;2022-09-09T01:45:49;14.40;99.90
37478;DHT22;23334;54.316;10.182;2022-09-09T01:48:17;14.50;99.90
37478;DHT22;23334;54.316;10.182;2022-09-09T01:50:44;14.60;99.90
37478;DHT22;23334;54.316;10.182;2022-09-09T01:53:11;14.60;99.90
37478;DHT22;23334;54.316;10.182;2022-09-09T01:55:42;14.40;99.90
37478;DHT22;23334;54.316;10.182;2022-09-09T01:58:26;14.60;99.90
37478;DHT22;23334;54.316;10.182;2022-09-09T02:01:06;14.60;99.90
37478;DHT22;23334;54.316;10.182;2022-09-09T02:03:32;14.50;99.90
37478;DHT22;23334;54.316;10.182;2022-09-09T02:08:42;14.60;99.90
37478;DHT22;23334;54.316;10.182;2022-09-09T02:11:15;14.60;99.90
37478;DHT22;23334;54.316;10.182;2022-09-09T02:13:43;14.50;99.90
37478;DHT22;23334;54.316;10.182;2022-09-09T02:16:21;14.50;99.90
37478;DHT22;23334;54.316;10.182;2022-09-09T02:21:31;14.70;99.90
37478;DHT22;23334;54.316;10.182;2022-09-09T02:24:03;14.60;99.90
37478;DHT22;23334;54.316;10.182;2022-09-09T02:26:31;14.40;99.90
37478;DHT22;23334;54.316;10.182;2022-09-09T02:28:58;14.50;99.90
37478;DHT22;23334;54.316;10.182;2022-09-09T02:31:26;14.60;99.90
37478;DHT22;23334;54.316;10.182;2022-09-09T02:33:55;14.40;99.90
37478;DHT22;23334;54.316;10.182;2022-09-09T02:36:24;14.50;99.90
37478;DHT22;23334;54.316;10.182;2022-09-09T02:38:51;14.50;99.90
37478;DHT22;23334;54.316;10.182;2022-09-09T02:41:27;14.80;99.90
37478;DHT22;23334;54.316;10.182;2022-09-09T02:43:55;14.60;99.90
37478;DHT22;23334;54.316;10.182;2022-09-09T02:49:35;14.70;99.90
37478;DHT22;23334;54.316;10.182;2022-09-09T02:52:08;14.60;99.90
37478;DHT22;23334;54.316;10.182;2022-09-09T02:54:41;14.70;99.90
37478;DHT22;23334;54.316;10.182;2022-09-09T02:57:20;14.60;99.90
37478;DHT22;23334;54.316;10.182;2022-09-09T02:59:47;14.80;99.90
37478;DHT22;23334;54.316;10.182;2022-09-09T03:02:13;14.70;99.90
37478;DHT22;23334;54.316;10.182;2022-09-09T03:04:40;14.60;99.90
37478;DHT22;23334;54.316;10.182;2022-09-09T03:07:08;14.60;99.90
37478;DHT22;23334;54.316;10.182;2022-09-09T03:09:33;14.60;99.90
37478;DHT22;23334;54.316;10.182;2022-09-09T03:11:59;14.60;99.90
37478;DHT22;23334;54.316;10.182;2022-09-09T03:14:25;14.50;99.90
37478;DHT22;23334;54.316;10.182;2022-09-09T03:16:51;14.60;99.90
37478;DHT22;23334;54.316;10.182;2022-09-09T03:19:17;14.50;99.90
37478;DHT22;23334;54.316;10.182;2022-09-09T03:21:44;14.60;99.90
37478;DHT22;23334;54.316;10.182;2022-09-09T03:24:10;14.60;99.90
37478;DHT22;23334;54.316;10.182;2022-09-09T03:26:35;14.50;99.90
37478;DHT22;23334;54.316;10.182;2022-09-09T03:29:03;14.50;99.90
37478;DHT22;23334;54.316;10.182;2022-09-09T03:31:30;14.50;99.90
37478;DHT22;23334;54.316;10.182;2022-09-09T03:33:59;14.50;99.90
37478;DHT22;23334;54.316;10.182;2022-09-09T03:36:26;14.80;99.90
37478;DHT22;23334;54.316;10.182;2022-09-09T03:38:52;14.40;99.90
37478;DHT22;23334;54.316;10.182;2022-09-09T03:41:17;14.60;99.90
37478;DHT22;23334;54.316;10.182;2022-09-09T03:43:43;15.40;99.90
37478;DHT22;23334;54.316;10.182;2022-09-09T03:46:09;14.90;99.90
37478;DHT22;23334;54.316;10.182;2022-09-09T03:48:35;14.50;99.90
37478;DHT22;23334;54.316;10.182;2022-09-09T03:51:00;14.50;99.90
37478;DHT22;23334;54.316;10.182;2022-09-09T03:53:27;14.50;99.90
37478;DHT22;23334;54.316;10.182;2022-09-09T03:55:54;14.50;99.90
37478;DHT22;23334;54.316;10.182;2022-09-09T03:58:21;14.90;99.90
37478;DHT22;23334;54.316;10.182;2022-09-09T04:00:56;14.50;99.90
37478;DHT22;23334;54.316;10.182;2022-09-09T04:03:23;14.50;99.90
37478;DHT22;23334;54.316;10.182;2022-09-09T04:05:53;14.50;99.90
37478;DHT22;23334;54.316;10.182;2022-09-09T04:08:20;14.40;99.90
37478;DHT22;23334;54.316;10.182;2022-09-09T04:10:47;14.40;99.90
37478;DHT22;23334;54.316;10.182;2022-09-09T04:13:13;14.40;99.90
37478;DHT22;23334;54.316;10.182;2022-09-09T04:15:40;14.40;99.90
37478;DHT22;23334;54.316;10.182;2022-09-09T04:18:05;14.40;99.90
37478;DHT22;23334;54.316;10.182;2022-09-09T04:20:31;14.70;99.90
37478;DHT22;23334;54.316;10.182;2022-09-09T04:22:57;14.70;99.90
37478;DHT22;23334;54.316;10.182;2022-09-09T04:25:23;14.50;99.90
37478;DHT22;23334;54.316;10.182;2022-09-09T04:27:54;14.60;99.90
37478;DHT22;23334;54.316;10.182;2022-09-09T04:30:20;14.30;99.90
37478;DHT22;23334;54.316;10.182;2022-09-09T04:32:46;14.30;99.90
37478;DHT22;23334;54.316;10.182;2022-09-09T04:35:11;14.30;99.90
37478;DHT22;23334;54.316;10.182;2022-09-09T04:37:37;14.70;99.90
37478;DHT22;23334;54.316;10.182;2022-09-09T04:40:02;14.20;99.90
37478;DHT22;23334;54.316;10.182;2022-09-09T04:42:28;14.20;99.90
37478;DHT22;23334;54.316;10.182;2022-09-09T04:44:54;14.60;99.90
37478;DHT22;23334;54.316;10.182;2022-09-09T04:47:19;14.60;99.90
37478;DHT22;23334;54.316;10.182;2022-09-09T04:49:45;14.70;99.90
37478;DHT22;23334;54.316;10.182;2022-09-09T04:52:10;14.30;99.90
37478;DHT22;23334;54.316;10.182;2022-09-09T04:54:36;14.40;99.90
37478;DHT22;23334;54.316;10.182;2022-09-09T04:57:02;14.30;99.90
37478;DHT22;23334;54.316;10.182;2022-09-09T04:59:27;14.40;99.90
37478;DHT22;23334;54.316;10.182;2022-09-09T05:01:53;14.40;99.90
37478;DHT22;23334;54.316;10.182;2022-09-09T05:04:20;14.80;99.90
37478;DHT22;23334;54.316;10.182;2022-09-09T05:06:46;14.30;99.90
37478;DHT22;23334;54.316;10.182;2022-09-09T05:09:11;14.80;99.90
37478;DHT22;23334;54.316;10.182;2022-09-09T05:11:37;14.40;99.90
37478;DHT22;23334;54.316;10.182;2022-09-09T05:14:04;14.90;99.90
37478;DHT22;23334;54.316;10.182;2022-09-09T05:16:30;14.60;99.90
37478;DHT22;23334;54.316;10.182;2022-09-09T05:18:55;14.40;99.90
37478;DHT22;23334;54.316;10.182;2022-09-09T05:21:23;14.60;99.90
37478;DHT22;23334;54.316;10.182;2022-09-09T05:23:49;14.50;99.90
37478;DHT22;23334;54.316;10.182;2022-09-09T05:26:18;14.80;99.90
37478;DHT22;23334;54.316;10.182;2022-09-09T05:28:44;14.40;99.90
37478;DHT22;23334;54.316;10.182;2022-09-09T05:31:11;14.60;99.90
37478;DHT22;23334;54.316;10.182;2022-09-09T05:33:38;14.40;99.90
37478;DHT22;23334;54.316;10.182;2022-09-09T05:36:08;14.60;99.90
37478;DHT22;23334;54.316;10.182;2022-09-09T05:38:34;14.60;99.90
37478;DHT22;23334;54.316;10.182;2022-09-09T05:41:01;14.60;99.90
37478;DHT22;23334;54.316;10.182;2022-09-09T05:43:28;14.80;99.90
37478;DHT22;23334;54.316;10.182;2022-09-09T05:46:03;14.70;99.90
37478;DHT22;23334;54.316;10.182;2022-09-09T05:48:32;14.60;99.90
37478;DHT22;23334;54.316;10.182;2022-09-09T05:50:58;14.80;99.90
37478;DHT22;23334;54.316;10.182;2022-09-09T05:53:25;14.70;99.90
37478;DHT22;23334;54.316;10.182;2022-09-09T05:55:59;15.00;99.90
37478;DHT22;23334;54.316;10.182;2022-09-09T05:58:24;14.80;99.90
37478;DHT22;23334;54.316;10.182;2022-09-09T06:00:50;14.90;99.90
37478;DHT22;23334;54.316;10.182;2022-09-09T06:03:15;14.90;99.90
37478;DHT22;23334;54.316;10.182;2022-09-09T06:05:43;14.80;99.90
37478;DHT22;23334;54.316;10.182;2022-09-09T06:08:08;15.50;99.90
37478;DHT22;23334;54.316;10.182;2022-09-09T06:10:34;14.90;99.90
37478;DHT22;23334;54.316;10.182;2022-09-09T06:13:00;14.80;99.90
37478;DHT22;23334;54.316;10.182;2022-09-09T06:15:25;15.50;99.90
37478;DHT22;23334;54.316;10.182;2022-09-09T06:17:55;14.90;99.90
37478;DHT22;23334;54.316;10.182;2022-09-09T06:20:21;15.30;99.90
37478;DHT22;23334;54.316;10.182;2022-09-09T06:22:47;15.00;99.90
37478;DHT22;23334;54.316;10.182;2022-09-09T06:25:15;15.10;99.90
37478;DHT22;23334;54.316;10.182;2022-09-09T06:27:40;15.10;99.90
37478;DHT22;23334;54.316;10.182;2022-09-09T06:30:07;15.50;99.90
37478;DHT22;23334;54.316;10.182;2022-09-09T06:32:35;15.20;99.90
37478;DHT22;23334;54.316;10.182;2022-09-09T06:35:05;15.20;99.90
37478;DHT22;23334;54.316;10.182;2022-09-09T06:37:31;15.30;99.90
37478;DHT22;23334;54.316;10.182;2022-09-09T06:39:58;15.60;99.90
37478;DHT22;23334;54.316;10.182;2022-09-09T06:42:25;15.40;99.90
37478;DHT22;23334;54.316;10.182;2022-09-09T06:44:50;15.50;99.90
37478;DHT22;23334;54.316;10.182;2022-09-09T06:47:16;16.10;99.90
37478;DHT22;23334;54.316;10.182;2022-09-09T06:49:41;16.10;99.90
37478;DHT22;23334;54.316;10.182;2022-09-09T06:52:09;15.50;99.90
37478;DHT22;23334;54.316;10.182;2022-09-09T06:54:34;15.80;99.90
37478;DHT22;23334;54.316;10.182;2022-09-09T06:57:02;15.60;99.90
37478;DHT22;23334;54.316;10.182;2022-09-09T06:59:28;15.60;99.90
37478;DHT22;23334;54.316;10.182;2022-09-09T07:01:56;16.00;99.90
37478;DHT22;23334;54.316;10.182;2022-09-09T07:04:23;16.10;99.90
37478;DHT22;23334;54.316;10.182;2022-09-09T07:06:49;15.90;99.90
37478;DHT22;23334;54.316;10.182;2022-09-09T07:09:16;15.90;99.90
37478;DHT22;23334;54.316;10.182;2022-09-09T07:11:46;16.30;99.90
37478;DHT22;23334;54.316;10.182;2022-09-09T07:14:12;16.60;99.90
37478;DHT22;23334;54.316;10.182;2022-09-09T07:16:39;16.40;99.90
37478;DHT22;23334;54.316;10.182;2022-09-09T07:19:05;16.90;99.90
37478;DHT22;23334;54.316;10.182;2022-09-09T07:21:32;18.30;99.90
37478;DHT22;23334;54.316;10.182;2022-09-09T07:23:59;18.70;99.90
37478;DHT22;23334;54.316;10.182;2022-09-09T07:26:30;19.30;99.90
37478;DHT22;23334;54.316;10.182;2022-09-09T07:28:56;19.60;99.90
37478;DHT22;23334;54.316;10.182;2022-09-09T07:31:27;19.40;99.90
37478;DHT22;23334;54.316;10.182;2022-09-09T07:33:53;19.70;99.90
37478;DHT22;23334;54.316;10.182;2022-09-09T07:36:26;20.10;99.90
37478;DHT22;23334;54.316;10.182;2022-09-09T07:38:54;20.70;99.90
37478;DHT22;23334;54.316;10.182;2022-09-09T07:41:23;20.50;99.90
37478;DHT22;23334;54.316;10.182;2022-09-09T07:43:49;20.40;99.90
37478;DHT22;23334;54.316;10.182;2022-09-09T07:46:17;20.10;99.90
37478;DHT22;23334;54.316;10.182;2022-09-09T07:48:47;20.60;99.90
37478;DHT22;23334;54.316;10.182;2022-09-09T07:51:17;21.70;99.90
37478;DHT22;23334;54.316;10.182;2022-09-09T07:53:43;22.10;99.90
37478;DHT22;23334;54.316;10.182;2022-09-09T07:56:12;22.60;99.90
37478;DHT22;23334;54.316;10.182;2022-09-09T07:58:39;22.50;99.90
37478;DHT22;23334;54.316;10.182;2022-09-09T08:01:12;22.70;99.90
37478;DHT22;23334;54.316;10.182;2022-09-09T08:03:38;23.50;99.90
37478;DHT22;23334;54.316;10.182;2022-09-09T08:06:06;23.90;99.90
37478;DHT22;23334;54.316;10.182;2022-09-09T08:08:33;24.50;99.90
37478;DHT22;23334;54.316;10.182;2022-09-09T08:13:34;25.20;99.90
37478;DHT22;23334;54.316;10.182;2022-09-09T08:16:19;25.60;99.90
37478;DHT22;23334;54.316;10.182;2022-09-09T08:18:47;26.60;99.90
37478;DHT22;23334;54.316;10.182;2022-09-09T08:23:44;27.10;99.90
37478;DHT22;23334;54.316;10.182;2022-09-09T08:26:17;28.40;99.90
37478;DHT22;23334;54.316;10.182;2022-09-09T08:28:48;29.40;99.90
37478;DHT22;23334;54.316;10.182;2022-09-09T08:31:19;30.30;99.90
37478;DHT22;23334;54.316;10.182;2022-09-09T08:33:45;30.50;99.90
37478;DHT22;23334;54.316;10.182;2022-09-09T08:36:16;29.80;99.90
37478;DHT22;23334;54.316;10.182;2022-09-09T08:38:46;29.70;99.90
37478;DHT22;23334;54.316;10.182;2022-09-09T08:47:21;26.90;99.90
37478;DHT22;23334;54.316;10.182;2022-09-09T08:49:57;26.60;99.90
37478;DHT22;23334;54.316;10.182;2022-09-09T08:52:31;25.20;99.90
37478;DHT22;23334;54.316;10.182;2022-09-09T08:55:01;24.10;99.90
37478;DHT22;23334;54.316;10.182;2022-09-09T08:57:31;23.10;99.90
37478;DHT22;23334;54.316;10.182;2022-09-09T08:59:57;22.90;99.90
37478;DHT22;23334;54.316;10.182;2022-09-09T09:02:39;22.40;99.90
37478;DHT22;23334;54.316;10.182;2022-09-09T09:05:23;22.00;99.90
37478;DHT22;23334;54.316;10.182;2022-09-09T09:08:26;21.60;99.90
37478;DHT22;23334;54.316;10.182;2022-09-09T09:10:57;21.40;99.90
37478;DHT22;23334;54.316;10.182;2022-09-09T09:13:34;21.30;99.90
37478;DHT22;23334;54.316;10.182;2022-09-09T09:18:52;21.30;99.90
37478;DHT22;23334;54.316;10.182;2022-09-09T09:21:25;21.20;99.90
37478;DHT22;23334;54.316;10.182;2022-09-09T09:23:57;21.30;99.90
37478;DHT22;23334;54.316;10.182;2022-09-09T09:26:30;21.70;99.90
37478;DHT22;23334;54.316;10.182;2022-09-09T09:28:56;22.40;99.90
37478;DHT22;23334;54.316;10.182;2022-09-09T09:31:25;23.10;99.90
37478;DHT22;23334;54.316;10.182;2022-09-09T09:33:56;22.90;99.90
37478;DHT22;23334;54.316;10.182;2022-09-09T09:36:44;22.90;99.90
37478;DHT22;23334;54.316;10.182;2022-09-09T09:39:23;23.30;99.90
37478;DHT22;23334;54.316;10.182;2022-09-09T09:41:49;24.50;99.90
37478;DHT22;23334;54.316;10.182;2022-09-09T09:44:31;26.30;99.90
37478;DHT22;23334;54.316;10.182;2022-09-09T09:47:13;27.80;99.90
37478;DHT22;23334;54.316;10.182;2022-09-09T09:49:39;27.50;99.90
37478;DHT22;23334;54.316;10.182;2022-09-09T09:52:18;28.90;99.90
37478;DHT22;23334;54.316;10.182;2022-09-09T09:54:46;30.00;99.90
37478;DHT22;23334;54.316;10.182;2022-09-09T09:57:14;28.50;99.90
37478;DHT22;23334;54.316;10.182;2022-09-09T09:59:40;27.40;99.90
37478;DHT22;23334;54.316;10.182;2022-09-09T10:04:40;24.60;99.90
37478;DHT22;23334;54.316;10.182;2022-09-09T10:07:18;23.90;99.90
37478;DHT22;23334;54.316;10.182;2022-09-09T10:09:44;24.90;99.90
37478;DHT22;23334;54.316;10.182;2022-09-09T10:20:51;30.30;99.90
37478;DHT22;23334;54.316;10.182;2022-09-09T10:26:25;30.30;99.90
37478;DHT22;23334;54.316;10.182;2022-09-09T10:31:24;29.20;99.90
37478;DHT22;23334;54.316;10.182;2022-09-09T10:36:46;30.10;99.90
37478;DHT22;23334;54.316;10.182;2022-09-09T10:42:07;30.90;99.90
37478;DHT22;23334;54.316;10.182;2022-09-09T10:44:49;31.00;99.90
37478;DHT22;23334;54.316;10.182;2022-09-09T10:47:48;30.00;99.90
37478;DHT22;23334;54.316;10.182;2022-09-09T10:50:30;28.60;99.90
37478;DHT22;23334;54.316;10.182;2022-09-09T10:53:14;28.20;99.90
37478;DHT22;23334;54.316;10.182;2022-09-09T10:55:50;27.00;99.90
37478;DHT22;23334;54.316;10.182;2022-09-09T10:58:30;25.90;99.90
37478;DHT22;23334;54.316;10.182;2022-09-09T11:01:03;25.10;99.90
37478;DHT22;23334;54.316;10.182;2022-09-09T11:03:33;24.60;99.90
37478;DHT22;23334;54.316;10.182;2022-09-09T11:06:05;23.90;99.90
37478;DHT22;23334;54.316;10.182;2022-09-09T11:08:34;23.50;99.90
37478;DHT22;23334;54.316;10.182;2022-09-09T11:11:16;23.50;99.90
37478;DHT22;23334;54.316;10.182;2022-09-09T11:14:15;23.10;99.90
37478;DHT22;23334;54.316;10.182;2022-09-09T11:16:50;23.40;99.90
37478;DHT22;23334;54.316;10.182;2022-09-09T11:19:28;23.30;99.90
37478;DHT22;23334;54.316;10.182;2022-09-09T11:21:55;23.50;99.90
37478;DHT22;23334;54.316;10.182;2022-09-09T11:24:28;23.20;99.90
37478;DHT22;23334;54.316;10.182;2022-09-09T11:27:00;23.20;99.90
37478;DHT22;23334;54.316;10.182;2022-09-09T11:30:13;23.10;99.90
37478;DHT22;23334;54.316;10.182;2022-09-09T11:35:38;24.00;99.90
37478;DHT22;23334;54.316;10.182;2022-09-09T11:41:08;23.90;99.90
37478;DHT22;23334;54.316;10.182;2022-09-09T11:43:49;23.60;99.90
37478;DHT22;23334;54.316;10.182;2022-09-09T11:46:22;24.10;99.90
37478;DHT22;23334;54.316;10.182;2022-09-09T11:49:21;24.30;99.90
37478;DHT22;23334;54.316;10.182;2022-09-09T11:51:50;24.00;99.90
37478;DHT22;23334;54.316;10.182;2022-09-09T11:54:32;23.20;99.90
37478;DHT22;23334;54.316;10.182;2022-09-09T11:56:59;23.30;99.90
37478;DHT22;23334;54.316;10.182;2022-09-09T11:59:32;22.80;99.90
37478;DHT22;23334;54.316;10.182;2022-09-09T12:05:00;22.70;99.90
37478;DHT22;23334;54.316;10.182;2022-09-09T12:07:55;22.60;99.90
37478;DHT22;23334;54.316;10.182;2022-09-09T12:10:33;22.50;99.90
37478;DHT22;23334;54.316;10.182;2022-09-09T12:13:21;22.50;99.90
37478;DHT22;23334;54.316;10.182;2022-09-09T12:15:56;22.40;99.90
37478;DHT22;23334;54.316;10.182;2022-09-09T12:18:32;22.80;99.90
37478;DHT22;23334;54.316;10.182;2022-09-09T12:21:14;23.20;99.90
37478;DHT22;23334;54.316;10.182;2022-09-09T12:26:23;23.60;99.90
37478;DHT22;23334;54.316;10.182;2022-09-09T12:37:58;24.00;99.90
37478;DHT22;23334;54.316;10.182;2022-09-09T12:42:44;24.00;99.90
37478;DHT22;23334;54.316;10.182;2022-09-09T12:45:24;23.90;99.90
37478;DHT22;23334;54.316;10.182;2022-09-09T12:48:08;24.00;99.90
37478;DHT22;23334;54.316;10.182;2022-09-09T12:50:51;23.90;99.90
37478;DHT22;23334;54.316;10.182;2022-09-09T12:53:26;23.60;99.90
37478;DHT22;23334;54.316;10.182;2022-09-09T12:55:59;23.40;99.90
37478;DHT22;23334;54.316;10.182;2022-09-09T12:58:26;23.60;99.90
37478;DHT22;23334;54.316;10.182;2022-09-09T13:00:55;23.90;99.90
37478;DHT22;23334;54.316;10.182;2022-09-09T13:03:24;23.90;99.90
37478;DHT22;23334;54.316;10.182;2022-09-09T13:05:51;23.90;99.90
37478;DHT22;23334;54.316;10.182;2022-09-09T13:08:18;23.80;99.90
37478;DHT22;23334;54.316;10.182;2022-09-09T13:10:50;24.00;99.90
37478;DHT22;23334;54.316;10.182;2022-09-09T13:13:31;23.40;99.90
37478;DHT22;23334;54.316;10.182;2022-09-09T13:16:00;23.30;99.90
37478;DHT22;23334;54.316;10.182;2022-09-09T13:18:32;23.00;99.90
37478;DHT22;23334;54.316;10.182;2022-09-09T13:20:59;22.90;99.90
37478;DHT22;23334;54.316;10.182;2022-09-09T13:23:49;22.80;99.90
37478;DHT22;23334;54.316;10.182;2022-09-09T13:26:26;22.70;99.90
37478;DHT22;23334;54.316;10.182;2022-09-09T13:28:53;22.80;99.90
37478;DHT22;23334;54.316;10.182;2022-09-09T13:31:32;22.90;99.90
37478;DHT22;23334;54.316;10.182;2022-09-09T13:33:58;23.10;99.90
37478;DHT22;23334;54.316;10.182;2022-09-09T13:36:31;23.20;99.90
37478;DHT22;23334;54.316;10.182;2022-09-09T13:38:58;23.00;99.90
37478;DHT22;23334;54.316;10.182;2022-09-09T13:41:34;23.10;99.90
37478;DHT22;23334;54.316;10.182;2022-09-09T13:44:02;22.90;99.90
37478;DHT22;23334;54.316;10.182;2022-09-09T13:46:37;23.00;99.90
37478;DHT22;23334;54.316;10.182;2022-09-09T13:51:43;22.70;99.90
37478;DHT22;23334;54.316;10.182;2022-09-09T13:54:13;22.90;99.90
37478;DHT22;23334;54.316;10.182;2022-09-09T13:56:40;23.00;99.90
37478;DHT22;23334;54.316;10.182;2022-09-09T13:59:13;23.10;99.90
37478;DHT22;23334;54.316;10.182;2022-09-09T14:01:39;23.20;99.90
37478;DHT22;23334;54.316;10.182;2022-09-09T14:04:06;23.30;99.90
37478;DHT22;23334;54.316;10.182;2022-09-09T14:06:33;23.10;99.90
37478;DHT22;23334;54.316;10.182;2022-09-09T14:09:01;22.90;99.90
37478;DHT22;23334;54.316;10.182;2022-09-09T14:11:28;22.90;99.90
37478;DHT22;23334;54.316;10.182;2022-09-09T14:13:55;23.10;99.90
37478;DHT22;23334;54.316;10.182;2022-09-09T14:16:21;23.20;99.90
37478;DHT22;23334;54.316;10.182;2022-09-09T14:18:47;23.50;99.90
37478;DHT22;23334;54.316;10.182;2022-09-09T14:21:13;23.50;99.90
37478;DHT22;23334;54.316;10.182;2022-09-09T14:23:39;23.30;99.90
37478;DHT22;23334;54.316;10.182;2022-09-09T14:26:06;22.70;99.90
37478;DHT22;23334;54.316;10.182;2022-09-09T14:28:32;22.20;99.90
37478;DHT22;23334;54.316;10.182;2022-09-09T14:31:03;22.10;99.90
37478;DHT22;23334;54.316;10.182;2022-09-09T14:33:29;22.10;99.90
37478;DHT22;23334;54.316;10.182;2022-09-09T14:36:00;21.60;99.90
37478;DHT22;23334;54.316;10.182;2022-09-09T14:38:29;22.00;99.90
37478;DHT22;23334;54.316;10.182;2022-09-09T14:40:55;21.30;99.90
37478;DHT22;23334;54.316;10.182;2022-09-09T14:43:21;21.00;99.90
37478;DHT22;23334;54.316;10.182;2022-09-09T14:45:47;20.90;99.90
37478;DHT22;23334;54.316;10.182;2022-09-09T14:48:17;20.90;99.90
37478;DHT22;23334;54.316;10.182;2022-09-09T14:50:42;20.10;99.90
37478;DHT22;23334;54.316;10.182;2022-09-09T14:53:08;20.00;99.90
37478;DHT22;23334;54.316;10.182;2022-09-09T14:55:35;19.70;99.90
37478;DHT22;23334;54.316;10.182;2022-09-09T14:58:01;19.90;99.90
37478;DHT22;23334;54.316;10.182;2022-09-09T15:00:26;19.80;99.90
37478;DHT22;23334;54.316;10.182;2022-09-09T15:02:55;19.70;99.90
37478;DHT22;23334;54.316;10.182;2022-09-09T15:05:21;19.80;99.90
37478;DHT22;23334;54.316;10.182;2022-09-09T15:07:47;19.70;99.90
37478;DHT22;23334;54.316;10.182;2022-09-09T15:10:16;19.70;99.90
37478;DHT22;23334;54.316;10.182;2022-09-09T15:12:42;19.50;99.90
37478;DHT22;23334;54.316;10.182;2022-09-09T15:15:11;19.40;99.90
37478;DHT22;23334;54.316;10.182;2022-09-09T15:17:38;19.10;99.90
37478;DHT22;23334;54.316;10.182;2022-09-09T15:20:04;18.90;99.90
37478;DHT22;23334;54.316;10.182;2022-09-09T15:22:31;18.90;99.90
37478;DHT22;23334;54.316;10.182;2022-09-09T15:24:57;19.40;99.90
37478;DHT22;23334;54.316;10.182;2022-09-09T15:27:22;18.10;99.90
37478;DHT22;23334;54.316;10.182;2022-09-09T15:29:49;18.80;99.90
37478;DHT22;23334;54.316;10.182;2022-09-09T15:32:16;18.40;99.90
37478;DHT22;23334;54.316;10.182;2022-09-09T15:34:43;18.60;99.90
37478;DHT22;23334;54.316;10.182;2022-09-09T15:37:12;18.10;99.90
37478;DHT22;23334;54.316;10.182;2022-09-09T15:39:38;18.00;99.90
37478;DHT22;23334;54.316;10.182;2022-09-09T15:42:04;17.80;99.90
37478;DHT22;23334;54.316;10.182;2022-09-09T15:44:37;18.00;99.90
37478;DHT22;23334;54.316;10.182;2022-09-09T15:47:03;17.30;99.90
37478;DHT22;23334;54.316;10.182;2022-09-09T15:49:28;17.20;99.90
37478;DHT22;23334;54.316;10.182;2022-09-09T15:51:56;17.60;99.90
37478;DHT22;23334;54.316;10.182;2022-09-09T15:54:23;17.10;99.90
37478;DHT22;23334;54.316;10.182;2022-09-09T15:56:55;17.10;99.90
37478;DHT22;23334;54.316;10.182;2022-09-09T15:59:26;17.70;99.90
37478;DHT22;23334;54.316;10.182;2022-09-09T16:01:53;17.10;99.90
37478;DHT22;23334;54.316;10.182;2022-09-09T16:04:19;17.40;99.90
37478;DHT22;23334;54.316;10.182;2022-09-09T16:06:51;17.40;99.90
37478;DHT22;23334;54.316;10.182;2022-09-09T16:09:18;17.00;99.90
37478;DHT22;23334;54.316;10.182;2022-09-09T16:11:44;16.70;99.90
37478;DHT22;23334;54.316;10.182;2022-09-09T16:14:10;16.80;99.90
37478;DHT22;23334;54.316;10.182;2022-09-09T16:16:36;17.10;99.90
37478;DHT22;23334;54.316;10.182;2022-09-09T16:19:05;16.90;99.90
37478;DHT22;23334;54.316;10.182;2022-09-09T16:21:34;17.50;99.90
37478;DHT22;23334;54.316;10.182;2022-09-09T16:24:02;17.20;99.90
37478;DHT22;23334;54.316;10.182;2022-09-09T16:26:33;17.00;99.90
37478;DHT22;23334;54.316;10.182;2022-09-09T16:29:01;17.20;99.90
37478;DHT22;23334;54.316;10.182;2022-09-09T16:31:29;17.00;99.90
37478;DHT22;23334;54.316;10.182;2022-09-09T16:33:55;17.00;99.90
37478;DHT22;23334;54.316;10.182;2022-09-09T16:36:23;16.70;99.90
37478;DHT22;23334;54.316;10.182;2022-09-09T16:38:53;16.50;99.90
37478;DHT22;23334;54.316;10.182;2022-09-09T16:41:19;16.60;99.90
37478;DHT22;23334;54.316;10.182;2022-09-09T16:43:45;16.50;99.90
37478;DHT22;23334;54.316;10.182;2022-09-09T16:46:15;17.00;99.90
37478;DHT22;23334;54.316;10.182;2022-09-09T16:48:42;17.20;99.90
37478;DHT22;23334;54.316;10.182;2022-09-09T16:51:13;16.80;99.90
37478;DHT22;23334;54.316;10.182;2022-09-09T16:53:40;16.70;99.90
37478;DHT22;23334;54.316;10.182;2022-09-09T16:56:10;16.80;99.90